Lester, Pennsylvania
Current Conditions -  °F | °C
As of 12:54 PM on Friday 19 Dec 2014 (Local Time) from KPHL Reporting Station
Broken Clouds Broken Clouds  
Wind Chill:   Ceiling: 3700
Heat Index:   Visibility: 10mi
Dew Point: -5°   Wind: 14mph
Humidity: 51%   Direction: 330°NNW
Pressure: 30.09"   Gusts: NA
Location:  39.867°N, 75.284°W
Report Text: KPHL 191754Z 33012KT 10SM BKN037 04/M05 A3009 RMK AO2 SLP188 T00441050 10044 20028 56007
Loading
Personal Weather Stations






























Interactive Weather Map New forecast layout! Learn more

10-Day Weather Forecast

Advertisements
Track Severe Weather on mobile